sensor_id;sensor_type;location;lat;lon;timestamp;temperature;humidity
3846;DHT22;1938;50.812;7.738;2023-04-15T00:01:36;5.20;1.00
3846;DHT22;1938;50.812;7.738;2023-04-15T00:04:02;5.20;99.90
3846;DHT22;1938;50.812;7.738;2023-04-15T00:06:28;5.20;99.90
3846;DHT22;1938;50.812;7.738;2023-04-15T00:08:55;5.10;99.90
3846;DHT22;1938;50.812;7.738;2023-04-15T00:11:21;5.10;99.90
3846;DHT22;1938;50.812;7.738;2023-04-15T00:13:46;5.20;99.90
3846;DHT22;1938;50.812;7.738;2023-04-15T00:16:13;5.10;99.90
3846;DHT22;1938;50.812;7.738;2023-04-15T00:18:39;5.10;99.90
3846;DHT22;1938;50.812;7.738;2023-04-15T00:21:05;5.10;99.90
3846;DHT22;1938;50.812;7.738;2023-04-15T00:23:31;5.10;99.90
3846;DHT22;1938;50.812;7.738;2023-04-15T00:25:56;5.10;99.90
3846;DHT22;1938;50.812;7.738;2023-04-15T00:28:22;5.10;99.90
3846;DHT22;1938;50.812;7.738;2023-04-15T00:30:49;5.00;1.00
3846;DHT22;1938;50.812;7.738;2023-04-15T00:33:14;5.00;1.00
3846;DHT22;1938;50.812;7.738;2023-04-15T00:35:44;5.00;1.00
3846;DHT22;1938;50.812;7.738;2023-04-15T00:38:09;4.90;1.00
3846;DHT22;1938;50.812;7.738;2023-04-15T00:40:36;4.90;1.00
3846;DHT22;1938;50.812;7.738;2023-04-15T00:43:03;4.90;1.00
3846;DHT22;1938;50.812;7.738;2023-04-15T00:45:29;4.80;1.00
3846;DHT22;1938;50.812;7.738;2023-04-15T00:47:55;4.80;1.00
3846;DHT22;1938;50.812;7.738;2023-04-15T00:50:21;4.80;1.00
3846;DHT22;1938;50.812;7.738;2023-04-15T00:52:46;4.70;9.30
3846;DHT22;1938;50.812;7.738;2023-04-15T00:55:12;4.60;45.60
3846;DHT22;1938;50.812;7.738;2023-04-15T00:57:39;4.70;99.90
3846;DHT22;1938;50.812;7.738;2023-04-15T01:00:06;4.70;46.00
3846;DHT22;1938;50.812;7.738;2023-04-15T01:02:35;4.60;4.10
3846;DHT22;1938;50.812;7.738;2023-04-15T01:05:02;4.60;99.90
3846;DHT22;1938;50.812;7.738;2023-04-15T01:07:32;4.50;99.90
3846;DHT22;1938;50.812;7.738;2023-04-15T01:09:58;4.50;99.90
3846;DHT22;1938;50.812;7.738;2023-04-15T01:12:25;4.50;99.90
3846;DHT22;1938;50.812;7.738;2023-04-15T01:14:52;4.40;99.90
3846;DHT22;1938;50.812;7.738;2023-04-15T01:17:19;4.40;99.90
3846;DHT22;1938;50.812;7.738;2023-04-15T01:19:45;4.30;99.90
3846;DHT22;1938;50.812;7.738;2023-04-15T01:22:10;4.20;1.00
3846;DHT22;1938;50.812;7.738;2023-04-15T01:24:36;4.20;1.00
3846;DHT22;1938;50.812;7.738;2023-04-15T01:27:04;4.20;99.90
3846;DHT22;1938;50.812;7.738;2023-04-15T01:29:30;4.30;1.00
3846;DHT22;1938;50.812;7.738;2023-04-15T01:31:56;4.30;99.90
3846;DHT22;1938;50.812;7.738;2023-04-15T01:34:23;4.40;99.90
3846;DHT22;1938;50.812;7.738;2023-04-15T01:36:48;4.40;99.90
3846;DHT22;1938;50.812;7.738;2023-04-15T01:39:14;4.40;99.90
3846;DHT22;1938;50.812;7.738;2023-04-15T01:41:40;4.50;99.90
3846;DHT22;1938;50.812;7.738;2023-04-15T01:44:06;4.40;99.90
3846;DHT22;1938;50.812;7.738;2023-04-15T01:46:32;4.20;99.90
3846;DHT22;1938;50.812;7.738;2023-04-15T01:48:59;4.20;1.00
3846;DHT22;1938;50.812;7.738;2023-04-15T01:51:25;4.10;26.30
3846;DHT22;1938;50.812;7.738;2023-04-15T01:53:51;4.10;99.90
3846;DHT22;1938;50.812;7.738;2023-04-15T01:56:17;4.00;99.90
3846;DHT22;1938;50.812;7.738;2023-04-15T01:58:43;4.00;99.90
3846;DHT22;1938;50.812;7.738;2023-04-15T02:01:09;4.10;99.90
3846;DHT22;1938;50.812;7.738;2023-04-15T02:03:36;4.00;1.00
3846;DHT22;1938;50.812;7.738;2023-04-15T02:06:02;4.10;99.90
3846;DHT22;1938;50.812;7.738;2023-04-15T02:08:29;4.00;99.90
3846;DHT22;1938;50.812;7.738;2023-04-15T02:10:55;4.10;99.90
3846;DHT22;1938;50.812;7.738;2023-04-15T02:13:21;4.00;1.00
3846;DHT22;1938;50.812;7.738;2023-04-15T02:15:49;3.90;99.90
3846;DHT22;1938;50.812;7.738;2023-04-15T02:18:17;3.80;1.00
3846;DHT22;1938;50.812;7.738;2023-04-15T02:20:43;3.80;99.90
3846;DHT22;1938;50.812;7.738;2023-04-15T02:23:09;3.80;99.90
3846;DHT22;1938;50.812;7.738;2023-04-15T02:25:37;3.90;1.00
3846;DHT22;1938;50.812;7.738;2023-04-15T02:28:06;4.00;99.90
3846;DHT22;1938;50.812;7.738;2023-04-15T02:30:32;4.00;40.10
3846;DHT22;1938;50.812;7.738;2023-04-15T02:32:59;4.10;44.60
3846;DHT22;1938;50.812;7.738;2023-04-15T02:35:24;4.10;1.00
3846;DHT22;1938;50.812;7.738;2023-04-15T02:37:51;4.00;1.00
3846;DHT22;1938;50.812;7.738;2023-04-15T02:40:17;3.90;95.60
3846;DHT22;1938;50.812;7.738;2023-04-15T02:42:44;3.90;99.90
3846;DHT22;1938;50.812;7.738;2023-04-15T02:45:10;3.90;99.90
3846;DHT22;1938;50.812;7.738;2023-04-15T02:47:37;3.90;1.00
3846;DHT22;1938;50.812;7.738;2023-04-15T02:50:09;3.90;99.90
3846;DHT22;1938;50.812;7.738;2023-04-15T02:52:39;3.80;1.00
3846;DHT22;1938;50.812;7.738;2023-04-15T02:55:06;3.80;99.90
3846;DHT22;1938;50.812;7.738;2023-04-15T02:57:33;3.70;99.90
3846;DHT22;1938;50.812;7.738;2023-04-15T03:00:02;3.60;99.90
3846;DHT22;1938;50.812;7.738;2023-04-15T03:02:33;3.60;1.00
3846;DHT22;1938;50.812;7.738;2023-04-15T03:04:59;3.60;44.50
3846;DHT22;1938;50.812;7.738;2023-04-15T03:07:24;3.60;99.90
3846;DHT22;1938;50.812;7.738;2023-04-15T03:09:51;3.40;99.90
3846;DHT22;1938;50.812;7.738;2023-04-15T03:12:16;3.50;99.90
3846;DHT22;1938;50.812;7.738;2023-04-15T03:14:42;3.40;99.90
3846;DHT22;1938;50.812;7.738;2023-04-15T03:17:07;3.30;1.00
3846;DHT22;1938;50.812;7.738;2023-04-15T03:19:33;3.30;1.00
3846;DHT22;1938;50.812;7.738;2023-04-15T03:21:59;3.30;1.00
3846;DHT22;1938;50.812;7.738;2023-04-15T03:24:25;3.40;1.00
3846;DHT22;1938;50.812;7.738;2023-04-15T03:26:51;3.30;1.00
3846;DHT22;1938;50.812;7.738;2023-04-15T03:29:17;3.20;1.00
3846;DHT22;1938;50.812;7.738;2023-04-15T03:31:43;3.20;1.00
3846;DHT22;1938;50.812;7.738;2023-04-15T03:34:09;3.10;1.00
3846;DHT22;1938;50.812;7.738;2023-04-15T03:36:34;3.10;3.80
3846;DHT22;1938;50.812;7.738;2023-04-15T03:39:01;3.10;25.70
3846;DHT22;1938;50.812;7.738;2023-04-15T03:41:26;3.20;1.00
3846;DHT22;1938;50.812;7.738;2023-04-15T03:43:53;3.20;1.00
3846;DHT22;1938;50.812;7.738;2023-04-15T03:46:18;3.20;1.00
3846;DHT22;1938;50.812;7.738;2023-04-15T03:48:46;3.20;1.00
3846;DHT22;1938;50.812;7.738;2023-04-15T03:51:11;3.10;10.00
3846;DHT22;1938;50.812;7.738;2023-04-15T03:53:37;3.10;17.40
3846;DHT22;1938;50.812;7.738;2023-04-15T03:56:02;3.10;33.10
3846;DHT22;1938;50.812;7.738;2023-04-15T03:58:28;3.10;43.90
3846;DHT22;1938;50.812;7.738;2023-04-15T04:00:53;3.20;28.90
3846;DHT22;1938;50.812;7.738;2023-04-15T04:03:19;3.20;27.10
3846;DHT22;1938;50.812;7.738;2023-04-15T04:05:46;3.30;29.90
3846;DHT22;1938;50.812;7.738;2023-04-15T04:08:11;3.30;1.00
3846;DHT22;1938;50.812;7.738;2023-04-15T04:10:41;3.30;1.00
3846;DHT22;1938;50.812;7.738;2023-04-15T04:13:06;3.30;10.40
3846;DHT22;1938;50.812;7.738;2023-04-15T04:15:32;3.40;3.90
3846;DHT22;1938;50.812;7.738;2023-04-15T04:17:57;3.40;1.00
3846;DHT22;1938;50.812;7.738;2023-04-15T04:20:23;3.30;16.10
3846;DHT22;1938;50.812;7.738;2023-04-15T04:22:49;3.30;17.00
3846;DHT22;1938;50.812;7.738;2023-04-15T04:25:15;3.20;20.60
3846;DHT22;1938;50.812;7.738;2023-04-15T04:27:40;3.20;33.20
3846;DHT22;1938;50.812;7.738;2023-04-15T04:30:06;3.20;35.90
3846;DHT22;1938;50.812;7.738;2023-04-15T04:32:32;3.10;53.70
3846;DHT22;1938;50.812;7.738;2023-04-15T04:34:58;3.10;83.20
3846;DHT22;1938;50.812;7.738;2023-04-15T04:37:23;3.10;87.60
3846;DHT22;1938;50.812;7.738;2023-04-15T04:39:49;3.10;58.50
3846;DHT22;1938;50.812;7.738;2023-04-15T04:42:15;3.10;92.10
3846;DHT22;1938;50.812;7.738;2023-04-15T04:44:41;3.10;88.70
3846;DHT22;1938;50.812;7.738;2023-04-15T04:47:07;3.10;90.60
3846;DHT22;1938;50.812;7.738;2023-04-15T04:49:33;3.10;96.60
3846;DHT22;1938;50.812;7.738;2023-04-15T04:51:58;3.00;99.90
3846;DHT22;1938;50.812;7.738;2023-04-15T04:54:24;2.90;99.90
3846;DHT22;1938;50.812;7.738;2023-04-15T04:56:50;3.00;99.90
3846;DHT22;1938;50.812;7.738;2023-04-15T04:59:17;3.00;99.90
3846;DHT22;1938;50.812;7.738;2023-04-15T05:01:42;3.10;99.90
3846;DHT22;1938;50.812;7.738;2023-04-15T05:04:08;3.10;99.90
3846;DHT22;1938;50.812;7.738;2023-04-15T05:06:34;3.10;99.90
3846;DHT22;1938;50.812;7.738;2023-04-15T05:09:01;3.10;99.90
3846;DHT22;1938;50.812;7.738;2023-04-15T05:11:27;3.20;99.90
3846;DHT22;1938;50.812;7.738;2023-04-15T05:13:53;3.20;99.90
3846;DHT22;1938;50.812;7.738;2023-04-15T05:16:20;3.20;99.90
3846;DHT22;1938;50.812;7.738;2023-04-15T05:18:46;3.30;99.90
3846;DHT22;1938;50.812;7.738;2023-04-15T05:21:12;3.30;99.90
3846;DHT22;1938;50.812;7.738;2023-04-15T05:23:37;3.30;99.90
3846;DHT22;1938;50.812;7.738;2023-04-15T05:26:03;3.20;99.90
3846;DHT22;1938;50.812;7.738;2023-04-15T05:28:29;3.10;99.90
3846;DHT22;1938;50.812;7.738;2023-04-15T05:30:54;3.10;99.90
3846;DHT22;1938;50.812;7.738;2023-04-15T05:33:20;3.00;99.90
3846;DHT22;1938;50.812;7.738;2023-04-15T05:35:46;3.00;99.90
3846;DHT22;1938;50.812;7.738;2023-04-15T05:38:11;3.10;99.90
3846;DHT22;1938;50.812;7.738;2023-04-15T05:40:37;3.10;99.90
3846;DHT22;1938;50.812;7.738;2023-04-15T05:43:03;3.10;99.90
3846;DHT22;1938;50.812;7.738;2023-04-15T05:45:29;3.00;99.90
3846;DHT22;1938;50.812;7.738;2023-04-15T05:47:54;3.10;99.90
3846;DHT22;1938;50.812;7.738;2023-04-15T05:50:20;3.20;99.90
3846;DHT22;1938;50.812;7.738;2023-04-15T05:52:46;3.20;99.90
3846;DHT22;1938;50.812;7.738;2023-04-15T05:55:11;3.50;99.90
3846;DHT22;1938;50.812;7.738;2023-04-15T05:57:37;3.70;99.90
3846;DHT22;1938;50.812;7.738;2023-04-15T06:00:04;3.90;14.70
3846;DHT22;1938;50.812;7.738;2023-04-15T06:02:30;4.10;1.00
3846;DHT22;1938;50.812;7.738;2023-04-15T06:04:56;4.40;1.00
3846;DHT22;1938;50.812;7.738;2023-04-15T06:07:22;4.60;38.70
3846;DHT22;1938;50.812;7.738;2023-04-15T06:09:49;5.00;99.90
3846;DHT22;1938;50.812;7.738;2023-04-15T06:12:15;5.40;99.90
3846;DHT22;1938;50.812;7.738;2023-04-15T06:14:41;5.70;99.90
3846;DHT22;1938;50.812;7.738;2023-04-15T06:17:06;5.80;1.00
3846;DHT22;1938;50.812;7.738;2023-04-15T06:19:33;6.10;99.90
3846;DHT22;1938;50.812;7.738;2023-04-15T06:22:00;6.60;99.90
3846;DHT22;1938;50.812;7.738;2023-04-15T06:24:26;7.20;99.90
3846;DHT22;1938;50.812;7.738;2023-04-15T06:26:51;7.90;99.90
3846;DHT22;1938;50.812;7.738;2023-04-15T06:29:17;7.90;1.00
3846;DHT22;1938;50.812;7.738;2023-04-15T06:31:42;8.50;1.00
3846;DHT22;1938;50.812;7.738;2023-04-15T06:34:09;8.80;1.00
3846;DHT22;1938;50.812;7.738;2023-04-15T06:36:35;9.10;99.90
3846;DHT22;1938;50.812;7.738;2023-04-15T06:39:00;9.30;99.90
3846;DHT22;1938;50.812;7.738;2023-04-15T06:41:26;10.10;99.90
3846;DHT22;1938;50.812;7.738;2023-04-15T06:43:53;10.60;99.90
3846;DHT22;1938;50.812;7.738;2023-04-15T06:46:19;11.20;99.90
3846;DHT22;1938;50.812;7.738;2023-04-15T06:48:44;11.60;99.90
3846;DHT22;1938;50.812;7.738;2023-04-15T06:51:10;12.20;99.20
3846;DHT22;1938;50.812;7.738;2023-04-15T06:53:36;13.00;90.60
3846;DHT22;1938;50.812;7.738;2023-04-15T06:56:07;13.20;25.60
3846;DHT22;1938;50.812;7.738;2023-04-15T06:58:33;13.50;21.70
3846;DHT22;1938;50.812;7.738;2023-04-15T07:00:59;13.90;26.50
3846;DHT22;1938;50.812;7.738;2023-04-15T07:03:25;14.90;22.50
3846;DHT22;1938;50.812;7.738;2023-04-15T07:05:51;16.00;25.40
3846;DHT22;1938;50.812;7.738;2023-04-15T07:08:22;16.70;19.20
3846;DHT22;1938;50.812;7.738;2023-04-15T07:10:47;17.80;24.80
3846;DHT22;1938;50.812;7.738;2023-04-15T07:13:14;18.10;23.70
3846;DHT22;1938;50.812;7.738;2023-04-15T07:15:40;18.20;20.00
3846;DHT22;1938;50.812;7.738;2023-04-15T07:18:05;18.80;20.20
3846;DHT22;1938;50.812;7.738;2023-04-15T07:20:31;19.20;21.10
3846;DHT22;1938;50.812;7.738;2023-04-15T07:22:56;18.20;9.70
3846;DHT22;1938;50.812;7.738;2023-04-15T07:25:23;17.10;1.00
3846;DHT22;1938;50.812;7.738;2023-04-15T07:27:49;15.90;1.00
3846;DHT22;1938;50.812;7.738;2023-04-15T07:30:14;15.30;1.00
3846;DHT22;1938;50.812;7.738;2023-04-15T07:32:41;14.80;1.00
3846;DHT22;1938;50.812;7.738;2023-04-15T07:35:08;15.60;1.00
3846;DHT22;1938;50.812;7.738;2023-04-15T07:37:34;16.30;1.00
3846;DHT22;1938;50.812;7.738;2023-04-15T07:40:00;17.20;1.00
3846;DHT22;1938;50.812;7.738;2023-04-15T07:42:26;17.10;1.00
3846;DHT22;1938;50.812;7.738;2023-04-15T07:44:52;17.50;1.00
3846;DHT22;1938;50.812;7.738;2023-04-15T07:47:18;17.50;1.00
3846;DHT22;1938;50.812;7.738;2023-04-15T07:49:44;17.60;1.00
3846;DHT22;1938;50.812;7.738;2023-04-15T07:52:10;17.80;1.00
3846;DHT22;1938;50.812;7.738;2023-04-15T07:54:35;17.70;1.00
3846;DHT22;1938;50.812;7.738;2023-04-15T07:57:01;17.50;1.00
3846;DHT22;1938;50.812;7.738;2023-04-15T07:59:29;18.30;1.00
3846;DHT22;1938;50.812;7.738;2023-04-15T08:01:55;18.70;1.00
3846;DHT22;1938;50.812;7.738;2023-04-15T08:04:21;17.20;1.00
3846;DHT22;1938;50.812;7.738;2023-04-15T08:06:48;16.00;1.00
3846;DHT22;1938;50.812;7.738;2023-04-15T08:09:15;15.50;1.00
3846;DHT22;1938;50.812;7.738;2023-04-15T08:11:40;15.30;1.00
3846;DHT22;1938;50.812;7.738;2023-04-15T08:14:06;14.90;1.00
3846;DHT22;1938;50.812;7.738;2023-04-15T08:16:32;14.80;1.00
3846;DHT22;1938;50.812;7.738;2023-04-15T08:18:57;15.20;1.00
3846;DHT22;1938;50.812;7.738;2023-04-15T08:21:23;16.10;1.00
3846;DHT22;1938;50.812;7.738;2023-04-15T08:23:51;16.60;1.00
3846;DHT22;1938;50.812;7.738;2023-04-15T08:26:17;17.60;1.00
3846;DHT22;1938;50.812;7.738;2023-04-15T08:28:43;18.50;1.00
3846;DHT22;1938;50.812;7.738;2023-04-15T08:31:10;19.80;1.00
3846;DHT22;1938;50.812;7.738;2023-04-15T08:33:36;20.60;1.00
3846;DHT22;1938;50.812;7.738;2023-04-15T08:36:03;21.40;1.00
3846;DHT22;1938;50.812;7.738;2023-04-15T08:38:28;21.80;1.00
3846;DHT22;1938;50.812;7.738;2023-04-15T08:40:55;22.20;1.00
3846;DHT22;1938;50.812;7.738;2023-04-15T08:43:27;22.40;1.00
3846;DHT22;1938;50.812;7.738;2023-04-15T08:45:57;21.90;1.00
3846;DHT22;1938;50.812;7.738;2023-04-15T08:48:27;21.40;1.00
3846;DHT22;1938;50.812;7.738;2023-04-15T08:50:54;20.90;1.00
3846;DHT22;1938;50.812;7.738;2023-04-15T08:53:19;20.00;1.00
3846;DHT22;1938;50.812;7.738;2023-04-15T08:55:47;19.00;1.00
3846;DHT22;1938;50.812;7.738;2023-04-15T08:58:13;18.10;1.00
3846;DHT22;1938;50.812;7.738;2023-04-15T09:00:39;17.10;1.00
3846;DHT22;1938;50.812;7.738;2023-04-15T09:03:06;16.60;1.00
3846;DHT22;1938;50.812;7.738;2023-04-15T09:05:33;16.20;1.00
3846;DHT22;1938;50.812;7.738;2023-04-15T09:08:00;15.40;1.00
3846;DHT22;1938;50.812;7.738;2023-04-15T09:10:26;14.70;1.00
3846;DHT22;1938;50.812;7.738;2023-04-15T09:12:53;14.20;1.00
3846;DHT22;1938;50.812;7.738;2023-04-15T09:15:18;13.80;1.00
3846;DHT22;1938;50.812;7.738;2023-04-15T09:17:45;13.30;1.00
3846;DHT22;1938;50.812;7.738;2023-04-15T09:20:15;13.00;1.00
3846;DHT22;1938;50.812;7.738;2023-04-15T09:22:46;12.70;1.00
3846;DHT22;1938;50.812;7.738;2023-04-15T09:27:49;12.30;1.00
3846;DHT22;1938;50.812;7.738;2023-04-15T09:30:15;12.40;1.00
3846;DHT22;1938;50.812;7.738;2023-04-15T09:32:53;12.50;1.00
3846;DHT22;1938;50.812;7.738;2023-04-15T09:35:20;12.30;1.00
3846;DHT22;1938;50.812;7.738;2023-04-15T09:37:45;12.40;1.00
3846;DHT22;1938;50.812;7.738;2023-04-15T09:40:12;12.60;1.00
3846;DHT22;1938;50.812;7.738;2023-04-15T09:42:55;12.60;1.00
3846;DHT22;1938;50.812;7.738;2023-04-15T09:45:21;12.70;1.00
3846;DHT22;1938;50.812;7.738;2023-04-15T09:47:47;12.60;1.00
3846;DHT22;1938;50.812;7.738;2023-04-15T09:50:12;12.30;1.00
3846;DHT22;1938;50.812;7.738;2023-04-15T09:52:43;12.30;1.00
3846;DHT22;1938;50.812;7.738;2023-04-15T09:55:09;12.40;1.00
3846;DHT22;1938;50.812;7.738;2023-04-15T09:57:36;12.40;1.00
3846;DHT22;1938;50.812;7.738;2023-04-15T10:00:07;12.30;1.00
3846;DHT22;1938;50.812;7.738;2023-04-15T10:02:34;12.20;1.00
3846;DHT22;1938;50.812;7.738;2023-04-15T10:05:01;12.30;1.00
3846;DHT22;1938;50.812;7.738;2023-04-15T10:07:26;12.40;1.00
3846;DHT22;1938;50.812;7.738;2023-04-15T10:09:52;12.50;1.00
3846;DHT22;1938;50.812;7.738;2023-04-15T10:12:19;12.60;1.00
3846;DHT22;1938;50.812;7.738;2023-04-15T10:14:52;12.80;1.00
3846;DHT22;1938;50.812;7.738;2023-04-15T10:17:21;12.90;1.00
3846;DHT22;1938;50.812;7.738;2023-04-15T10:19:47;13.00;1.00
3846;DHT22;1938;50.812;7.738;2023-04-15T10:22:14;13.30;1.00
3846;DHT22;1938;50.812;7.738;2023-04-15T10:24:39;13.50;1.00
3846;DHT22;1938;50.812;7.738;2023-04-15T10:27:06;13.70;1.00
3846;DHT22;1938;50.812;7.738;2023-04-15T10:29:32;13.70;1.00
3846;DHT22;1938;50.812;7.738;2023-04-15T10:32:00;14.10;1.00
3846;DHT22;1938;50.812;7.738;2023-04-15T10:34:26;14.20;1.00
3846;DHT22;1938;50.812;7.738;2023-04-15T10:36:57;14.30;1.00
3846;DHT22;1938;50.812;7.738;2023-04-15T10:39:40;14.70;1.00
3846;DHT22;1938;50.812;7.738;2023-04-15T10:42:17;14.80;1.00
3846;DHT22;1938;50.812;7.738;2023-04-15T10:44:48;14.80;1.00
3846;DHT22;1938;50.812;7.738;2023-04-15T10:47:16;14.80;1.00
3846;DHT22;1938;50.812;7.738;2023-04-15T10:49:47;14.50;1.00
3846;DHT22;1938;50.812;7.738;2023-04-15T10:52:15;14.50;1.00
3846;DHT22;1938;50.812;7.738;2023-04-15T10:54:42;14.20;1.00
3846;DHT22;1938;50.812;7.738;2023-04-15T10:57:16;14.10;1.00
3846;DHT22;1938;50.812;7.738;2023-04-15T10:59:58;13.80;1.00
3846;DHT22;1938;50.812;7.738;2023-04-15T11:05:18;13.30;1.00
3846;DHT22;1938;50.812;7.738;2023-04-15T11:07:52;13.10;1.00
3846;DHT22;1938;50.812;7.738;2023-04-15T11:12:58;12.70;1.00
3846;DHT22;1938;50.812;7.738;2023-04-15T11:15:28;12.50;1.00
3846;DHT22;1938;50.812;7.738;2023-04-15T11:17:59;12.50;1.00
3846;DHT22;1938;50.812;7.738;2023-04-15T11:20:33;11.80;1.00
3846;DHT22;1938;50.812;7.738;2023-04-15T11:22:59;11.00;99.90
3846;DHT22;1938;50.812;7.738;2023-04-15T11:25:33;10.60;99.90
3846;DHT22;1938;50.812;7.738;2023-04-15T11:28:00;10.20;99.90
3846;DHT22;1938;50.812;7.738;2023-04-15T11:30:31;9.90;1.00
3846;DHT22;1938;50.812;7.738;2023-04-15T11:33:06;9.80;99.90
3846;DHT22;1938;50.812;7.738;2023-04-15T11:35:34;9.70;52.80
3846;DHT22;1938;50.812;7.738;2023-04-15T11:38:04;9.50;1.00
3846;DHT22;1938;50.812;7.738;2023-04-15T11:40:30;9.40;42.90
3846;DHT22;1938;50.812;7.738;2023-04-15T11:43:05;9.40;99.90
3846;DHT22;1938;50.812;7.738;2023-04-15T11:45:32;9.30;92.30
3846;DHT22;1938;50.812;7.738;2023-04-15T11:48:10;9.40;99.90
3846;DHT22;1938;50.812;7.738;2023-04-15T11:50:37;9.50;21.60
3846;DHT22;1938;50.812;7.738;2023-04-15T11:53:06;9.30;1.00
3846;DHT22;1938;50.812;7.738;2023-04-15T11:55:41;9.30;1.00
3846;DHT22;1938;50.812;7.738;2023-04-15T11:58:10;9.30;1.00
3846;DHT22;1938;50.812;7.738;2023-04-15T12:00:39;9.30;99.90
3846;DHT22;1938;50.812;7.738;2023-04-15T12:03:40;9.50;1.00
3846;DHT22;1938;50.812;7.738;2023-04-15T12:09:08;9.50;1.00
3846;DHT22;1938;50.812;7.738;2023-04-15T12:11:50;9.30;1.00
3846;DHT22;1938;50.812;7.738;2023-04-15T12:14:28;9.20;1.00
3846;DHT22;1938;50.812;7.738;2023-04-15T12:16:57;9.10;1.00
3846;DHT22;1938;50.812;7.738;2023-04-15T12:22:14;9.30;61.00
3846;DHT22;1938;50.812;7.738;2023-04-15T12:24:41;9.60;99.90
3846;DHT22;1938;50.812;7.738;2023-04-15T12:27:16;9.80;99.90
3846;DHT22;1938;50.812;7.738;2023-04-15T12:29:42;10.10;99.90
3846;DHT22;1938;50.812;7.738;2023-04-15T12:32:13;10.20;53.90
3846;DHT22;1938;50.812;7.738;2023-04-15T12:34:52;10.30;98.70
3846;DHT22;1938;50.812;7.738;2023-04-15T12:37:21;10.40;99.90
3846;DHT22;1938;50.812;7.738;2023-04-15T12:39:48;10.50;99.90
3846;DHT22;1938;50.812;7.738;2023-04-15T12:42:15;10.60;99.90
3846;DHT22;1938;50.812;7.738;2023-04-15T12:44:42;10.50;1.00
3846;DHT22;1938;50.812;7.738;2023-04-15T12:47:09;10.40;95.30
3846;DHT22;1938;50.812;7.738;2023-04-15T12:49:35;10.40;99.90
3846;DHT22;1938;50.812;7.738;2023-04-15T12:52:01;10.30;99.90
3846;DHT22;1938;50.812;7.738;2023-04-15T12:54:28;10.20;1.00
3846;DHT22;1938;50.812;7.738;2023-04-15T12:56:54;10.10;1.00
3846;DHT22;1938;50.812;7.738;2023-04-15T12:59:21;10.00;99.90
3846;DHT22;1938;50.812;7.738;2023-04-15T13:01:48;10.10;99.90
3846;DHT22;1938;50.812;7.738;2023-04-15T13:04:15;10.20;1.00
3846;DHT22;1938;50.812;7.738;2023-04-15T13:06:40;10.40;76.80
3846;DHT22;1938;50.812;7.738;2023-04-15T13:09:06;10.60;99.90
3846;DHT22;1938;50.812;7.738;2023-04-15T13:11:32;10.60;1.00
3846;DHT22;1938;50.812;7.738;2023-04-15T13:13:59;10.50;1.00
3846;DHT22;1938;50.812;7.738;2023-04-15T13:16:26;10.60;99.90
3846;DHT22;1938;50.812;7.738;2023-04-15T13:18:52;10.50;40.10
3846;DHT22;1938;50.812;7.738;2023-04-15T13:21:18;10.50;1.00
3846;DHT22;1938;50.812;7.738;2023-04-15T13:23:44;10.60;1.00
3846;DHT22;1938;50.812;7.738;2023-04-15T13:26:09;10.60;99.90
3846;DHT22;1938;50.812;7.738;2023-04-15T13:28:35;10.40;99.90
3846;DHT22;1938;50.812;7.738;2023-04-15T13:31:01;10.40;99.90
3846;DHT22;1938;50.812;7.738;2023-04-15T13:33:27;10.40;1.00
3846;DHT22;1938;50.812;7.738;2023-04-15T13:35:53;10.30;1.00
3846;DHT22;1938;50.812;7.738;2023-04-15T13:38:19;10.30;99.90
3846;DHT22;1938;50.812;7.738;2023-04-15T13:40:45;10.20;1.00
3846;DHT22;1938;50.812;7.738;2023-04-15T13:43:11;10.10;1.00
3846;DHT22;1938;50.812;7.738;2023-04-15T13:45:36;10.10;55.70
3846;DHT22;1938;50.812;7.738;2023-04-15T13:48:03;10.10;99.90
3846;DHT22;1938;50.812;7.738;2023-04-15T13:50:29;10.20;99.90
3846;DHT22;1938;50.812;7.738;2023-04-15T13:52:56;10.20;99.90
3846;DHT22;1938;50.812;7.738;2023-04-15T13:55:21;10.20;99.90
3846;DHT22;1938;50.812;7.738;2023-04-15T13:57:47;10.30;1.00
3846;DHT22;1938;50.812;7.738;2023-04-15T14:00:13;10.30;99.90
3846;DHT22;1938;50.812;7.738;2023-04-15T14:02:39;10.30;1.00
3846;DHT22;1938;50.812;7.738;2023-04-15T14:05:05;10.40;1.00
3846;DHT22;1938;50.812;7.738;2023-04-15T14:07:31;10.30;99.90
3846;DHT22;1938;50.812;7.738;2023-04-15T14:09:57;10.20;32.80
3846;DHT22;1938;50.812;7.738;2023-04-15T14:12:22;10.20;1.00
3846;DHT22;1938;50.812;7.738;2023-04-15T14:14:48;10.20;1.00
3846;DHT22;1938;50.812;7.738;2023-04-15T14:17:14;10.10;99.90
3846;DHT22;1938;50.812;7.738;2023-04-15T14:19:39;10.20;99.90
3846;DHT22;1938;50.812;7.738;2023-04-15T14:22:05;10.20;99.90
3846;DHT22;1938;50.812;7.738;2023-04-15T14:24:30;10.10;99.90
3846;DHT22;1938;50.812;7.738;2023-04-15T14:26:57;10.10;1.00
3846;DHT22;1938;50.812;7.738;2023-04-15T14:29:23;10.10;99.90
3846;DHT22;1938;50.812;7.738;2023-04-15T14:31:49;10.10;99.90
3846;DHT22;1938;50.812;7.738;2023-04-15T14:34:15;10.10;99.90
3846;DHT22;1938;50.812;7.738;2023-04-15T14:36:42;10.00;1.00
3846;DHT22;1938;50.812;7.738;2023-04-15T14:39:08;10.00;99.90
3846;DHT22;1938;50.812;7.738;2023-04-15T14:41:34;10.00;99.90
3846;DHT22;1938;50.812;7.738;2023-04-15T14:44:01;10.00;99.90
3846;DHT22;1938;50.812;7.738;2023-04-15T14:46:26;9.90;1.00
3846;DHT22;1938;50.812;7.738;2023-04-15T14:48:52;9.80;16.80
3846;DHT22;1938;50.812;7.738;2023-04-15T14:51:18;9.70;99.90
3846;DHT22;1938;50.812;7.738;2023-04-15T14:53:44;9.60;99.90
3846;DHT22;1938;50.812;7.738;2023-04-15T14:56:11;9.60;99.90
3846;DHT22;1938;50.812;7.738;2023-04-15T14:58:36;9.50;1.00
3846;DHT22;1938;50.812;7.738;2023-04-15T15:01:03;9.50;1.00
3846;DHT22;1938;50.812;7.738;2023-04-15T15:03:29;9.50;1.00
3846;DHT22;1938;50.812;7.738;2023-04-15T15:05:55;9.50;1.00
3846;DHT22;1938;50.812;7.738;2023-04-15T15:08:22;9.60;1.00
3846;DHT22;1938;50.812;7.738;2023-04-15T15:10:47;9.40;1.00
3846;DHT22;1938;50.812;7.738;2023-04-15T15:13:13;9.30;1.00
3846;DHT22;1938;50.812;7.738;2023-04-15T15:15:38;9.20;1.00
3846;DHT22;1938;50.812;7.738;2023-04-15T15:18:05;8.80;1.00
3846;DHT22;1938;50.812;7.738;2023-04-15T15:20:31;8.40;99.90
3846;DHT22;1938;50.812;7.738;2023-04-15T15:22:57;8.30;99.90
3846;DHT22;1938;50.812;7.738;2023-04-15T15:25:23;8.30;99.90
3846;DHT22;1938;50.812;7.738;2023-04-15T15:27:48;8.40;99.90
3846;DHT22;1938;50.812;7.738;2023-04-15T15:30:14;8.50;99.90
3846;DHT22;1938;50.812;7.738;2023-04-15T15:32:41;8.60;99.90
3846;DHT22;1938;50.812;7.738;2023-04-15T15:35:07;8.50;99.90
3846;DHT22;1938;50.812;7.738;2023-04-15T15:37:34;8.60;99.90
3846;DHT22;1938;50.812;7.738;2023-04-15T15:40:00;8.60;99.90
3846;DHT22;1938;50.812;7.738;2023-04-15T15:42:30;8.60;99.90
3846;DHT22;1938;50.812;7.738;2023-04-15T15:44:56;8.60;99.90
3846;DHT22;1938;50.812;7.738;2023-04-15T15:47:22;8.60;99.90
3846;DHT22;1938;50.812;7.738;2023-04-15T15:49:48;8.60;99.90
3846;DHT22;1938;50.812;7.738;2023-04-15T15:52:14;8.50;99.90
3846;DHT22;1938;50.812;7.738;2023-04-15T15:54:40;8.60;99.90
3846;DHT22;1938;50.812;7.738;2023-04-15T15:57:05;8.60;99.90
3846;DHT22;1938;50.812;7.738;2023-04-15T15:59:31;8.50;97.00
3846;DHT22;1938;50.812;7.738;2023-04-15T16:01:58;8.50;99.90
3846;DHT22;1938;50.812;7.738;2023-04-15T16:04:24;8.50;99.90
3846;DHT22;1938;50.812;7.738;2023-04-15T16:06:50;8.50;99.90
3846;DHT22;1938;50.812;7.738;2023-04-15T16:09:16;8.50;99.90
3846;DHT22;1938;50.812;7.738;2023-04-15T16:11:43;8.50;99.90
3846;DHT22;1938;50.812;7.738;2023-04-15T16:14:10;8.50;99.90
3846;DHT22;1938;50.812;7.738;2023-04-15T16:16:37;8.40;99.90
3846;DHT22;1938;50.812;7.738;2023-04-15T16:19:03;8.40;99.90
3846;DHT22;1938;50.812;7.738;2023-04-15T16:21:29;8.30;99.90
3846;DHT22;1938;50.812;7.738;2023-04-15T16:23:55;8.30;99.90
3846;DHT22;1938;50.812;7.738;2023-04-15T16:26:22;8.30;99.90
3846;DHT22;1938;50.812;7.738;2023-04-15T16:28:48;8.30;99.90
3846;DHT22;1938;50.812;7.738;2023-04-15T16:31:13;8.30;99.90